BBC Delaware — V2CN9 — position and weather

sailwx.info

Track history (hours):
 
Tides and Currents Weather Stations Pressure Air Temp Water Temp Dewpoint Dewpoint Depression Visibility Wind Speed Wind Dir Waves Ship Positions

BBC Delaware

Last reported at 2018-Apr-06 01:39 UTC. Time now 2018-Apr-20 10:47 UTC.
Position N 09°13' W 079°55'.
Warning: this ship's position is 14 days out of date.

Length 138 m; draft 6.9 m.

Type: Ship. MMSI: 305057000.

Date/timePositionNaut miles runAvg speedWind from/ knotsBaromVisibWave heightAir tempDewpointWater temp
2018-Apr-06 01:39N 09°13' W 079°55'213.4
2018-Apr-06 01:30N 09°15' W 079°55'1 2.4
2018-Apr-06 01:01N 09°16' W 079°55'0 0.7
2018-Apr-06 00:27N 09°17' W 079°55'0 0.6
2018-Apr-06 00:00N 09°17' W 079°55'1 2.9
2018-Apr-05 23:30N 09°18' W 079°55'4 7.5
2018-Apr-05 23:00N 09°22' W 079°55'1 1.0
2018-Apr-05 22:28N 09°23' W 079°55'0 0.0
2018-Apr-05 21:58N 09°23' W 079°55'0 0.0
2018-Apr-05 21:26N 09°23' W 079°55'0 0.0
2018-Apr-05 20:56N 09°23' W 079°55'0 0.0
2018-Apr-05 20:28N 09°23' W 079°55'0 0.0
2018-Apr-05 19:58N 09°23' W 079°55'0 0.0
2018-Apr-05 19:28N 09°23' W 079°55'0 0.0
2018-Apr-05 18:56N 09°23' W 079°55'0 0.0
2018-Apr-05 18:28N 09°23' W 079°55'0 0.0
2018-Apr-05 17:58N 09°23' W 079°55'0 0.0
2018-Apr-05 17:28N 09°23' W 079°55'0 0.0
2018-Apr-05 16:58N 09°23' W 079°55'0 0.0
2018-Apr-05 16:28N 09°23' W 079°55'0 0.0
2018-Apr-05 15:58N 09°23' W 079°55'0 0.0
2018-Apr-05 15:28N 09°23' W 079°55'0 0.0
2018-Apr-05 14:58N 09°23' W 079°55'0 0.0
2018-Apr-05 14:28N 09°23' W 079°55'0 0.0
2018-Apr-05 13:58N 09°23' W 079°55'0 0.0
2018-Apr-05 13:28N 09°23' W 079°55'0 0.0
2018-Apr-05 12:55N 09°23' W 079°55'0 0.1
2018-Apr-05 12:28N 09°23' W 079°55'0 0.1
2018-Apr-05 11:58N 09°23' W 079°55'0 0.0
2018-Apr-05 11:28N 09°23' W 079°55'0 0.0
2018-Apr-05 10:58N 09°23' W 079°55'0 0.0
2018-Apr-05 10:28N 09°23' W 079°55'0 0.0
2018-Apr-05 09:58N 09°23' W 079°55'0 0.2
2018-Apr-05 09:25N 09°23' W 079°55'1 2.3
2018-Apr-05 09:00N 09°23' W 079°55'510.7
2018-Apr-05 08:30N 09°29' W 079°54'24612.3
2018-Apr-04 12:32N 10°18' W 075°49'114.0
2018-Apr-04 12:28N 10°18' W 075°48'713.8
2018-Apr-04 12:00N 10°20' W 075°42'612.4
2018-Apr-04 11:30N 10°19' W 075°36'5 9.3
2018-Apr-04 11:00N 10°22' W 075°32'2 4.3
2018-Apr-04 10:27N 10°24' W 075°32'0 0.6
2018-Apr-04 09:57N 10°24' W 075°32'0 0.0
2018-Apr-04 09:29N 10°24' W 075°32'0 0.0
2018-Apr-04 08:59N 10°24' W 075°32'0 0.0
2018-Apr-04 08:27N 10°24' W 075°32'0 0.0
2018-Apr-04 07:57N 10°24' W 075°32'0 0.0
2018-Apr-04 07:27N 10°24' W 075°32'0 0.0
2018-Apr-04 06:57N 10°24' W 075°32'0 0.0
2018-Apr-04 06:27N 10°24' W 075°32'0 0.0
2018-Apr-04 05:57N 10°24' W 075°32'0 0.0
2018-Apr-04 05:27N 10°24' W 075°32'0 0.0
2018-Apr-04 04:57N 10°24' W 075°32'0 0.0
2018-Apr-04 04:27N 10°24' W 075°32'0 0.0
2018-Apr-04 03:57N 10°24' W 075°32'0 0.0
2018-Apr-04 03:27N 10°24' W 075°32'0 0.0
2018-Apr-04 02:57N 10°24' W 075°32'0 0.0
2018-Apr-04 02:27N 10°24' W 075°32'0 0.0
2018-Apr-04 01:57N 10°24' W 075°32'0 0.0
2018-Apr-04 01:29N 10°24' W 075°32'0 0.0
2018-Apr-04 00:57N 10°24' W 075°32'0 0.0
2018-Apr-04 00:29N 10°24' W 075°32'0 0.0
2018-Apr-03 23:57N 10°24' W 075°32'0 0.0
2018-Apr-03 23:29N 10°24' W 075°32'0 0.0
2018-Apr-03 22:57N 10°24' W 075°32'0 0.0
2018-Apr-03 22:27N 10°24' W 075°32'0 0.0
2018-Apr-03 21:57N 10°24' W 075°32'0 0.0
2018-Apr-03 21:27N 10°24' W 075°32'0 0.0
2018-Apr-03 20:57N 10°24' W 075°32'0 0.0
2018-Apr-03 20:23N 10°24' W 075°32'0 0.0
2018-Apr-03 19:57N 10°24' W 075°32'0 0.0
2018-Apr-03 19:27N 10°24' W 075°32'0 0.0
2018-Apr-03 18:57N 10°24' W 075°32'0 0.0
2018-Apr-03 18:27N 10°24' W 075°32'0 0.0
2018-Apr-03 17:57N 10°24' W 075°32'0 0.0
2018-Apr-03 17:27N 10°24' W 075°32'0 0.0
2018-Apr-03 16:53N 10°24' W 075°32'0 0.0
2018-Apr-03 16:29N 10°24' W 075°32'0 0.0
2018-Apr-03 15:51N 10°24' W 075°32'0 0.0
2018-Apr-03 15:27N 10°24' W 075°32'0 0.0
2018-Apr-03 14:57N 10°24' W 075°32'0 0.0
2018-Apr-03 14:27N 10°24' W 075°32'0 0.0
2018-Apr-03 13:57N 10°24' W 075°32'0 0.0
2018-Apr-03 13:27N 10°24' W 075°32'0 0.0
2018-Apr-03 12:59N 10°24' W 075°32'0 0.0
2018-Apr-03 12:27N 10°24' W 075°32'0 0.0
2018-Apr-03 11:45N 10°24' W 075°32'0 0.0
2018-Apr-03 11:27N 10°24' W 075°32'0 0.0
2018-Apr-03 10:45N 10°24' W 075°32'0 0.0
2018-Apr-03 10:27N 10°24' W 075°32'0 0.0
2018-Apr-03 09:57N 10°24' W 075°32'0 0.0
2018-Apr-03 09:27N 10°24' W 075°32'0 0.0
2018-Apr-03 08:57N 10°24' W 075°32'0 0.0
2018-Apr-03 08:29N 10°24' W 075°32'0 0.0
2018-Apr-03 07:57N 10°24' W 075°32'0 0.0
2018-Apr-03 07:29N 10°24' W 075°32'0 0.0
2018-Apr-03 06:57N 10°24' W 075°32'0 0.0
2018-Apr-03 06:27N 10°24' W 075°32'0 0.0
2018-Apr-03 05:57N 10°24' W 075°32'0 0.0
2018-Apr-03 05:27N 10°24' W 075°32'0 0.0
2018-Apr-03 04:57N 10°24' W 075°32'0 0.0
2018-Apr-03 04:27N 10°24' W 075°32'0 0.0
2018-Apr-03 03:59N 10°24' W 075°32'0 0.0
2018-Apr-03 03:21N 10°24' W 075°32'0 0.0
2018-Apr-03 02:57N 10°24' W 075°32'0 0.0
2018-Apr-03 02:27N 10°24' W 075°32'0 0.0
2018-Apr-03 01:59N 10°24' W 075°32'0 0.0
2018-Apr-03 01:29N 10°24' W 075°32'0 0.0
2018-Apr-03 00:57N 10°24' W 075°32'0 0.0
2018-Apr-03 00:29N 10°24' W 075°32'0 0.0
2018-Apr-02 23:57N 10°24' W 075°32'0 0.0
2018-Apr-02 23:21N 10°24' W 075°32'0 0.0
2018-Apr-02 22:57N 10°24' W 075°32'0 0.0
2018-Apr-02 22:27N 10°24' W 075°32'0 0.0
2018-Apr-02 21:59N 10°24' W 075°32'0 0.0
2018-Apr-02 21:27N 10°24' W 075°32'0 0.0
2018-Apr-02 20:57N 10°24' W 075°32'0 0.0
2018-Apr-02 20:29N 10°24' W 075°32'0 0.0
2018-Apr-02 19:53N 10°24' W 075°32'0 0.0
2018-Apr-02 19:27N 10°24' W 075°32'0 0.0
2018-Apr-02 18:57N 10°24' W 075°32'0 0.0
2018-Apr-02 18:27N 10°24' W 075°32'0 0.0
2018-Apr-02 17:57N 10°24' W 075°32'0 0.0
2018-Apr-02 17:27N 10°24' W 075°32'0 0.0
2018-Apr-02 16:57N 10°24' W 075°32'0 0.0
2018-Apr-02 16:29N 10°24' W 075°32'0 0.0
2018-Apr-02 15:57N 10°24' W 075°32'0 0.0
2018-Apr-02 15:27N 10°24' W 075°32'0 0.0
2018-Apr-02 14:57N 10°24' W 075°32'0 0.0
2018-Apr-02 14:27N 10°24' W 075°32'0 0.0
2018-Apr-02 13:57N 10°24' W 075°32'0 0.0
2018-Apr-02 13:27N 10°24' W 075°32'0 0.0
2018-Apr-02 12:57N 10°24' W 075°32'0 0.0
2018-Apr-02 12:21N 10°24' W 075°32'0 0.0
2018-Apr-02 11:57N 10°24' W 075°32'0 0.0
2018-Apr-02 11:21N 10°24' W 075°32'0 0.0
2018-Apr-02 10:57N 10°24' W 075°32'0 0.0
2018-Apr-02 10:27N 10°24' W 075°32'0 0.0
2018-Apr-02 10:00N 10°24' W 075°32'0 0.0
2018-Apr-02 09:28N 10°24' W 075°32'0 0.0
2018-Apr-02 08:58N 10°24' W 075°32'0 0.0
2018-Apr-02 08:30N 10°24' W 075°32'0 0.0
2018-Apr-02 07:58N 10°24' W 075°32'0 0.0
2018-Apr-02 07:28N 10°24' W 075°32'0 0.0
2018-Apr-02 06:51N 10°24' W 075°32'0 0.0
2018-Apr-02 06:27N 10°24' W 075°32'0 0.0
2018-Apr-02 05:57N 10°24' W 075°32'0 0.0
2018-Apr-02 05:27N 10°24' W 075°32'0 0.0
2018-Apr-02 05:00N 10°24' W 075°32'0 0.0
2018-Apr-02 04:30N 10°24' W 075°32'0 0.0
2018-Apr-02 03:57N 10°24' W 075°32'0 0.0
2018-Apr-02 03:27N 10°24' W 075°32'0 0.0
2018-Apr-02 02:57N 10°24' W 075°32'0 0.0
2018-Apr-02 02:27N 10°24' W 075°32'0 0.0
2018-Apr-02 01:57N 10°24' W 075°32'0 0.0
2018-Apr-02 01:27N 10°24' W 075°32'0 0.0
2018-Apr-02 00:57N 10°24' W 075°32'0 0.0
2018-Apr-02 00:27N 10°24' W 075°32'0 0.0
2018-Apr-01 23:57N 10°24' W 075°32'0 0.0
2018-Apr-01 23:27N 10°24' W 075°32'0 0.2
2018-Apr-01 22:51N 10°24' W 075°32'0 0.0
2018-Apr-01 22:27N 10°24' W 075°32'4 0.1
2018-Mar-31 20:05N 10°20' W 075°32'311.6
2018-Mar-31 19:52N 10°19' W 075°34'3 9.4
2018-Mar-31 19:30N 10°19' W 075°38'5 8.2
2018-Mar-31 18:52N 10°17' W 075°43'  
Track history (hours):
 
Tides and Currents Weather Stations Pressure Air Temp Water Temp Dewpoint Dewpoint Depression Visibility Wind Speed Wind Dir Waves Ship Positions

BBC Delaware

Last reported at 2018-Apr-06 01:39 UTC. Time now 2018-Apr-20 10:47 UTC.
Position N 09°13' W 079°55'.
Warning: this ship's position is 14 days out of date.

Length 138 m; draft 6.9 m.

Type: Ship. MMSI: 305057000.

Date/timePositionNaut miles runAvg speedWind from/ knotsBaromVisibWave heightAir tempDewpointWater temp
2018-Apr-06 01:39N 09°13' W 079°55'213.4
2018-Apr-06 01:30N 09°15' W 079°55'1 2.4
2018-Apr-06 01:01N 09°16' W 079°55'0 0.7
2018-Apr-06 00:27N 09°17' W 079°55'0 0.6
2018-Apr-06 00:00N 09°17' W 079°55'1 2.9
2018-Apr-05 23:30N 09°18' W 079°55'4 7.5
2018-Apr-05 23:00N 09°22' W 079°55'1 1.0
2018-Apr-05 22:28N 09°23' W 079°55'0 0.0
2018-Apr-05 21:58N 09°23' W 079°55'0 0.0
2018-Apr-05 21:26N 09°23' W 079°55'0 0.0
2018-Apr-05 20:56N 09°23' W 079°55'0 0.0
2018-Apr-05 20:28N 09°23' W 079°55'0 0.0
2018-Apr-05 19:58N 09°23' W 079°55'0 0.0
2018-Apr-05 19:28N 09°23' W 079°55'0 0.0
2018-Apr-05 18:56N 09°23' W 079°55'0 0.0
2018-Apr-05 18:28N 09°23' W 079°55'0 0.0
2018-Apr-05 17:58N 09°23' W 079°55'0 0.0
2018-Apr-05 17:28N 09°23' W 079°55'0 0.0
2018-Apr-05 16:58N 09°23' W 079°55'0 0.0
2018-Apr-05 16:28N 09°23' W 079°55'0 0.0
2018-Apr-05 15:58N 09°23' W 079°55'0 0.0
2018-Apr-05 15:28N 09°23' W 079°55'0 0.0
2018-Apr-05 14:58N 09°23' W 079°55'0 0.0
2018-Apr-05 14:28N 09°23' W 079°55'0 0.0
2018-Apr-05 13:58N 09°23' W 079°55'0 0.0
2018-Apr-05 13:28N 09°23' W 079°55'0 0.0
2018-Apr-05 12:55N 09°23' W 079°55'0 0.1
2018-Apr-05 12:28N 09°23' W 079°55'0 0.1
2018-Apr-05 11:58N 09°23' W 079°55'0 0.0
2018-Apr-05 11:28N 09°23' W 079°55'0 0.0
2018-Apr-05 10:58N 09°23' W 079°55'0 0.0
2018-Apr-05 10:28N 09°23' W 079°55'0 0.0
2018-Apr-05 09:58N 09°23' W 079°55'0 0.2
2018-Apr-05 09:25N 09°23' W 079°55'1 2.3
2018-Apr-05 09:00N 09°23' W 079°55'510.7
2018-Apr-05 08:30N 09°29' W 079°54'24612.3
2018-Apr-04 12:32N 10°18' W 075°49'114.0
2018-Apr-04 12:28N 10°18' W 075°48'713.8
2018-Apr-04 12:00N 10°20' W 075°42'612.4
2018-Apr-04 11:30N 10°19' W 075°36'5 9.3
2018-Apr-04 11:00N 10°22' W 075°32'2 4.3
2018-Apr-04 10:27N 10°24' W 075°32'0 0.6
2018-Apr-04 09:57N 10°24' W 075°32'0 0.0
2018-Apr-04 09:29N 10°24' W 075°32'0 0.0
2018-Apr-04 08:59N 10°24' W 075°32'0 0.0
2018-Apr-04 08:27N 10°24' W 075°32'0 0.0
2018-Apr-04 07:57N 10°24' W 075°32'0 0.0
2018-Apr-04 07:27N 10°24' W 075°32'0 0.0
2018-Apr-04 06:57N 10°24' W 075°32'0 0.0
2018-Apr-04 06:27N 10°24' W 075°32'0 0.0
2018-Apr-04 05:57N 10°24' W 075°32'0 0.0
2018-Apr-04 05:27N 10°24' W 075°32'0 0.0
2018-Apr-04 04:57N 10°24' W 075°32'0 0.0
2018-Apr-04 04:27N 10°24' W 075°32'0 0.0
2018-Apr-04 03:57N 10°24' W 075°32'0 0.0
2018-Apr-04 03:27N 10°24' W 075°32'0 0.0
2018-Apr-04 02:57N 10°24' W 075°32'0 0.0
2018-Apr-04 02:27N 10°24' W 075°32'0 0.0
2018-Apr-04 01:57N 10°24' W 075°32'0 0.0
2018-Apr-04 01:29N 10°24' W 075°32'0 0.0
2018-Apr-04 00:57N 10°24' W 075°32'0 0.0
2018-Apr-04 00:29N 10°24' W 075°32'0 0.0
2018-Apr-03 23:57N 10°24' W 075°32'0 0.0
2018-Apr-03 23:29N 10°24' W 075°32'0 0.0
2018-Apr-03 22:57N 10°24' W 075°32'0 0.0
2018-Apr-03 22:27N 10°24' W 075°32'0 0.0
2018-Apr-03 21:57N 10°24' W 075°32'0 0.0
2018-Apr-03 21:27N 10°24' W 075°32'0 0.0
2018-Apr-03 20:57N 10°24' W 075°32'0 0.0
2018-Apr-03 20:23N 10°24' W 075°32'0 0.0
2018-Apr-03 19:57N 10°24' W 075°32'0 0.0
2018-Apr-03 19:27N 10°24' W 075°32'0 0.0
2018-Apr-03 18:57N 10°24' W 075°32'0 0.0
2018-Apr-03 18:27N 10°24' W 075°32'0 0.0
2018-Apr-03 17:57N 10°24' W 075°32'0 0.0
2018-Apr-03 17:27N 10°24' W 075°32'0 0.0
2018-Apr-03 16:53N 10°24' W 075°32'0 0.0
2018-Apr-03 16:29N 10°24' W 075°32'0 0.0
2018-Apr-03 15:51N 10°24' W 075°32'0 0.0
2018-Apr-03 15:27N 10°24' W 075°32'0 0.0
2018-Apr-03 14:57N 10°24' W 075°32'0 0.0
2018-Apr-03 14:27N 10°24' W 075°32'0 0.0
2018-Apr-03 13:57N 10°24' W 075°32'0 0.0
2018-Apr-03 13:27N 10°24' W 075°32'0 0.0
2018-Apr-03 12:59N 10°24' W 075°32'0 0.0
2018-Apr-03 12:27N 10°24' W 075°32'0 0.0
2018-Apr-03 11:45N 10°24' W 075°32'0 0.0
2018-Apr-03 11:27N 10°24' W 075°32'0 0.0
2018-Apr-03 10:45N 10°24' W 075°32'0 0.0
2018-Apr-03 10:27N 10°24' W 075°32'0 0.0
2018-Apr-03 09:57N 10°24' W 075°32'0 0.0
2018-Apr-03 09:27N 10°24' W 075°32'0 0.0
2018-Apr-03 08:57N 10°24' W 075°32'0 0.0
2018-Apr-03 08:29N 10°24' W 075°32'0 0.0
2018-Apr-03 07:57N 10°24' W 075°32'0 0.0
2018-Apr-03 07:29N 10°24' W 075°32'0 0.0
2018-Apr-03 06:57N 10°24' W 075°32'0 0.0
2018-Apr-03 06:27N 10°24' W 075°32'0 0.0
2018-Apr-03 05:57N 10°24' W 075°32'0 0.0
2018-Apr-03 05:27N 10°24' W 075°32'0 0.0
2018-Apr-03 04:57N 10°24' W 075°32'0 0.0
2018-Apr-03 04:27N 10°24' W 075°32'0 0.0
2018-Apr-03 03:59N 10°24' W 075°32'0 0.0
2018-Apr-03 03:21N 10°24' W 075°32'0 0.0
2018-Apr-03 02:57N 10°24' W 075°32'0 0.0
2018-Apr-03 02:27N 10°24' W 075°32'0 0.0
2018-Apr-03 01:59N 10°24' W 075°32'0 0.0
2018-Apr-03 01:29N 10°24' W 075°32'0 0.0
2018-Apr-03 00:57N 10°24' W 075°32'0 0.0
2018-Apr-03 00:29N 10°24' W 075°32'0 0.0
2018-Apr-02 23:57N 10°24' W 075°32'0 0.0
2018-Apr-02 23:21N 10°24' W 075°32'0 0.0
2018-Apr-02 22:57N 10°24' W 075°32'0 0.0
2018-Apr-02 22:27N 10°24' W 075°32'0 0.0
2018-Apr-02 21:59N 10°24' W 075°32'0 0.0
2018-Apr-02 21:27N 10°24' W 075°32'0 0.0
2018-Apr-02 20:57N 10°24' W 075°32'0 0.0
2018-Apr-02 20:29N 10°24' W 075°32'0 0.0
2018-Apr-02 19:53N 10°24' W 075°32'0 0.0
2018-Apr-02 19:27N 10°24' W 075°32'0 0.0
2018-Apr-02 18:57N 10°24' W 075°32'0 0.0
2018-Apr-02 18:27N 10°24' W 075°32'0 0.0
2018-Apr-02 17:57N 10°24' W 075°32'0 0.0
2018-Apr-02 17:27N 10°24' W 075°32'0 0.0
2018-Apr-02 16:57N 10°24' W 075°32'0 0.0
2018-Apr-02 16:29N 10°24' W 075°32'0 0.0
2018-Apr-02 15:57N 10°24' W 075°32'0 0.0
2018-Apr-02 15:27N 10°24' W 075°32'0 0.0
2018-Apr-02 14:57N 10°24' W 075°32'0 0.0
2018-Apr-02 14:27N 10°24' W 075°32'0 0.0
2018-Apr-02 13:57N 10°24' W 075°32'0 0.0
2018-Apr-02 13:27N 10°24' W 075°32'0 0.0
2018-Apr-02 12:57N 10°24' W 075°32'0 0.0
2018-Apr-02 12:21N 10°24' W 075°32'0 0.0
2018-Apr-02 11:57N 10°24' W 075°32'0 0.0
2018-Apr-02 11:21N 10°24' W 075°32'0 0.0
2018-Apr-02 10:57N 10°24' W 075°32'0 0.0
2018-Apr-02 10:27N 10°24' W 075°32'0 0.0
2018-Apr-02 10:00N 10°24' W 075°32'0 0.0
2018-Apr-02 09:28N 10°24' W 075°32'0 0.0
2018-Apr-02 08:58N 10°24' W 075°32'0 0.0
2018-Apr-02 08:30N 10°24' W 075°32'0 0.0
2018-Apr-02 07:58N 10°24' W 075°32'0 0.0
2018-Apr-02 07:28N 10°24' W 075°32'0 0.0
2018-Apr-02 06:51N 10°24' W 075°32'0 0.0
2018-Apr-02 06:27N 10°24' W 075°32'0 0.0
2018-Apr-02 05:57N 10°24' W 075°32'0 0.0
2018-Apr-02 05:27N 10°24' W 075°32'0 0.0
2018-Apr-02 05:00N 10°24' W 075°32'0 0.0
2018-Apr-02 04:30N 10°24' W 075°32'0 0.0
2018-Apr-02 03:57N 10°24' W 075°32'0 0.0
2018-Apr-02 03:27N 10°24' W 075°32'0 0.0
2018-Apr-02 02:57N 10°24' W 075°32'0 0.0
2018-Apr-02 02:27N 10°24' W 075°32'0 0.0
2018-Apr-02 01:57N 10°24' W 075°32'0 0.0
2018-Apr-02 01:27N 10°24' W 075°32'0 0.0
2018-Apr-02 00:57N 10°24' W 075°32'0 0.0
2018-Apr-02 00:27N 10°24' W 075°32'0 0.0
2018-Apr-01 23:57N 10°24' W 075°32'0 0.0
2018-Apr-01 23:27N 10°24' W 075°32'0 0.2
2018-Apr-01 22:51N 10°24' W 075°32'0 0.0
2018-Apr-01 22:27N 10°24' W 075°32'4 0.1
2018-Mar-31 20:05N 10°20' W 075°32'311.6
2018-Mar-31 19:52N 10°19' W 075°34'3 9.4
2018-Mar-31 19:30N 10°19' W 075°38'5 8.2
2018-Mar-31 18:52N 10°17' W 075°43'  

Dump ship's entire track history